sensor_id;sensor_type;location;lat;lon;timestamp;P1;durP1;ratioP1;P2;durP2;ratioP2
10277;SDS011;5184;51.376;7.148;2023-03-01T00:00:04;9.87;;;7.20;;
10277;SDS011;5184;51.376;7.148;2023-03-01T00:02:31;10.80;;;8.20;;
10277;SDS011;5184;51.376;7.148;2023-03-01T00:04:58;9.93;;;7.53;;
10277;SDS011;5184;51.376;7.148;2023-03-01T00:07:25;9.43;;;7.90;;
10277;SDS011;5184;51.376;7.148;2023-03-01T00:09:51;10.43;;;8.30;;
10277;SDS011;5184;51.376;7.148;2023-03-01T00:12:18;11.57;;;8.17;;
10277;SDS011;5184;51.376;7.148;2023-03-01T00:14:45;11.53;;;8.33;;
10277;SDS011;5184;51.376;7.148;2023-03-01T00:17:13;10.97;;;8.83;;
10277;SDS011;5184;51.376;7.148;2023-03-01T00:19:39;10.63;;;8.33;;
10277;SDS011;5184;51.376;7.148;2023-03-01T00:22:06;12.33;;;8.93;;
10277;SDS011;5184;51.376;7.148;2023-03-01T00:24:33;11.37;;;9.73;;
10277;SDS011;5184;51.376;7.148;2023-03-01T00:27:00;13.07;;;9.13;;
10277;SDS011;5184;51.376;7.148;2023-03-01T00:29:28;10.90;;;8.33;;
10277;SDS011;5184;51.376;7.148;2023-03-01T00:31:55;11.17;;;8.90;;
10277;SDS011;5184;51.376;7.148;2023-03-01T00:34:22;11.07;;;8.37;;
10277;SDS011;5184;51.376;7.148;2023-03-01T00:36:49;13.07;;;9.40;;
10277;SDS011;5184;51.376;7.148;2023-03-01T00:39:15;9.53;;;8.47;;
10277;SDS011;5184;51.376;7.148;2023-03-01T00:41:42;12.30;;;9.07;;
10277;SDS011;5184;51.376;7.148;2023-03-01T00:44:10;12.57;;;9.37;;
10277;SDS011;5184;51.376;7.148;2023-03-01T00:46:36;13.07;;;9.50;;
10277;SDS011;5184;51.376;7.148;2023-03-01T00:49:03;12.13;;;9.70;;
10277;SDS011;5184;51.376;7.148;2023-03-01T00:51:30;12.20;;;9.27;;
10277;SDS011;5184;51.376;7.148;2023-03-01T00:53:58;11.13;;;9.77;;
10277;SDS011;5184;51.376;7.148;2023-03-01T00:56:23;13.70;;;10.57;;
10277;SDS011;5184;51.376;7.148;2023-03-01T00:58:50;13.23;;;9.90;;
10277;SDS011;5184;51.376;7.148;2023-03-01T01:01:18;11.87;;;9.40;;
10277;SDS011;5184;51.376;7.148;2023-03-01T01:03:45;13.27;;;9.57;;
10277;SDS011;5184;51.376;7.148;2023-03-01T01:06:13;12.50;;;9.10;;
10277;SDS011;5184;51.376;7.148;2023-03-01T01:08:40;11.20;;;9.33;;
10277;SDS011;5184;51.376;7.148;2023-03-01T01:11:09;11.90;;;9.10;;
10277;SDS011;5184;51.376;7.148;2023-03-01T01:13:34;11.53;;;9.13;;
10277;SDS011;5184;51.376;7.148;2023-03-01T01:16:01;15.27;;;9.97;;
10277;SDS011;5184;51.376;7.148;2023-03-01T01:18:27;12.10;;;8.80;;
10277;SDS011;5184;51.376;7.148;2023-03-01T01:20:54;13.30;;;9.80;;
10277;SDS011;5184;51.376;7.148;2023-03-01T01:23:21;12.40;;;9.50;;
10277;SDS011;5184;51.376;7.148;2023-03-01T01:25:48;10.33;;;8.47;;
10277;SDS011;5184;51.376;7.148;2023-03-01T01:28:15;12.60;;;9.17;;
10277;SDS011;5184;51.376;7.148;2023-03-01T01:30:42;12.97;;;8.97;;
10277;SDS011;5184;51.376;7.148;2023-03-01T01:33:09;13.17;;;9.27;;
10277;SDS011;5184;51.376;7.148;2023-03-01T01:35:36;14.13;;;9.70;;
10277;SDS011;5184;51.376;7.148;2023-03-01T01:38:03;13.10;;;8.90;;
10277;SDS011;5184;51.376;7.148;2023-03-01T01:40:29;11.33;;;10.00;;
10277;SDS011;5184;51.376;7.148;2023-03-01T01:42:57;12.20;;;8.77;;
10277;SDS011;5184;51.376;7.148;2023-03-01T01:45:29;13.73;;;9.63;;
10277;SDS011;5184;51.376;7.148;2023-03-01T01:47:57;14.50;;;9.73;;
10277;SDS011;5184;51.376;7.148;2023-03-01T01:50:22;11.67;;;10.20;;
10277;SDS011;5184;51.376;7.148;2023-03-01T01:52:48;14.10;;;10.03;;
10277;SDS011;5184;51.376;7.148;2023-03-01T01:55:16;13.90;;;10.30;;
10277;SDS011;5184;51.376;7.148;2023-03-01T01:57:43;12.87;;;9.60;;
10277;SDS011;5184;51.376;7.148;2023-03-01T02:00:12;13.67;;;9.73;;
10277;SDS011;5184;51.376;7.148;2023-03-01T02:02:38;14.87;;;10.40;;
10277;SDS011;5184;51.376;7.148;2023-03-01T02:05:09;12.90;;;9.63;;
10277;SDS011;5184;51.376;7.148;2023-03-01T02:07:34;13.43;;;9.60;;
10277;SDS011;5184;51.376;7.148;2023-03-01T02:10:02;11.97;;;9.33;;
10277;SDS011;5184;51.376;7.148;2023-03-01T02:12:28;12.30;;;9.47;;
10277;SDS011;5184;51.376;7.148;2023-03-01T02:14:56;12.77;;;9.40;;
10277;SDS011;5184;51.376;7.148;2023-03-01T02:17:22;11.90;;;9.60;;
10277;SDS011;5184;51.376;7.148;2023-03-01T02:19:54;13.00;;;9.40;;
10277;SDS011;5184;51.376;7.148;2023-03-01T02:22:25;15.90;;;9.50;;
10277;SDS011;5184;51.376;7.148;2023-03-01T02:24:55;15.03;;;9.80;;
10277;SDS011;5184;51.376;7.148;2023-03-01T02:27:21;14.83;;;9.40;;
10277;SDS011;5184;51.376;7.148;2023-03-01T02:29:48;13.13;;;10.30;;
10277;SDS011;5184;51.376;7.148;2023-03-01T02:32:16;11.67;;;8.93;;
10277;SDS011;5184;51.376;7.148;2023-03-01T02:34:42;13.90;;;10.50;;
10277;SDS011;5184;51.376;7.148;2023-03-01T02:37:12;13.97;;;9.87;;
10277;SDS011;5184;51.376;7.148;2023-03-01T02:39:37;14.93;;;9.53;;
10277;SDS011;5184;51.376;7.148;2023-03-01T02:42:03;14.27;;;10.67;;
10277;SDS011;5184;51.376;7.148;2023-03-01T02:44:30;13.87;;;10.30;;
10277;SDS011;5184;51.376;7.148;2023-03-01T02:46:56;12.73;;;9.40;;
10277;SDS011;5184;51.376;7.148;2023-03-01T02:49:27;15.60;;;10.53;;
10277;SDS011;5184;51.376;7.148;2023-03-01T02:51:56;14.27;;;10.30;;
10277;SDS011;5184;51.376;7.148;2023-03-01T02:54:42;14.23;;;10.57;;
10277;SDS011;5184;51.376;7.148;2023-03-01T02:57:24;12.60;;;10.23;;
10277;SDS011;5184;51.376;7.148;2023-03-01T02:59:50;17.53;;;11.40;;
10277;SDS011;5184;51.376;7.148;2023-03-01T03:02:19;15.93;;;11.00;;
10277;SDS011;5184;51.376;7.148;2023-03-01T03:04:46;12.80;;;9.93;;
10277;SDS011;5184;51.376;7.148;2023-03-01T03:07:13;15.60;;;11.13;;
10277;SDS011;5184;51.376;7.148;2023-03-01T03:09:40;14.93;;;10.57;;
10277;SDS011;5184;51.376;7.148;2023-03-01T03:12:08;13.40;;;10.33;;
10277;SDS011;5184;51.376;7.148;2023-03-01T03:14:34;14.67;;;10.23;;
10277;SDS011;5184;51.376;7.148;2023-03-01T03:17:01;14.83;;;10.60;;
10277;SDS011;5184;51.376;7.148;2023-03-01T03:19:28;13.63;;;9.90;;
10277;SDS011;5184;51.376;7.148;2023-03-01T03:21:54;15.47;;;10.23;;
10277;SDS011;5184;51.376;7.148;2023-03-01T03:24:22;15.13;;;10.37;;
10277;SDS011;5184;51.376;7.148;2023-03-01T03:26:48;15.57;;;11.17;;
10277;SDS011;5184;51.376;7.148;2023-03-01T03:29:15;14.47;;;10.70;;
10277;SDS011;5184;51.376;7.148;2023-03-01T03:31:42;13.67;;;10.10;;
10277;SDS011;5184;51.376;7.148;2023-03-01T03:34:09;15.93;;;10.47;;
10277;SDS011;5184;51.376;7.148;2023-03-01T03:36:36;15.87;;;10.90;;
10277;SDS011;5184;51.376;7.148;2023-03-01T03:39:02;16.10;;;11.47;;
10277;SDS011;5184;51.376;7.148;2023-03-01T03:41:29;14.87;;;10.17;;
10277;SDS011;5184;51.376;7.148;2023-03-01T03:43:56;14.97;;;10.47;;
10277;SDS011;5184;51.376;7.148;2023-03-01T03:46:22;13.80;;;9.93;;
10277;SDS011;5184;51.376;7.148;2023-03-01T03:48:50;16.30;;;10.03;;
10277;SDS011;5184;51.376;7.148;2023-03-01T03:51:17;16.20;;;10.23;;
10277;SDS011;5184;51.376;7.148;2023-03-01T03:53:45;17.73;;;11.13;;
10277;SDS011;5184;51.376;7.148;2023-03-01T03:56:11;14.77;;;10.33;;
10277;SDS011;5184;51.376;7.148;2023-03-01T03:58:38;14.90;;;11.33;;
10277;SDS011;5184;51.376;7.148;2023-03-01T04:01:04;16.27;;;10.83;;
10277;SDS011;5184;51.376;7.148;2023-03-01T04:03:32;15.53;;;11.23;;
10277;SDS011;5184;51.376;7.148;2023-03-01T04:05:59;15.23;;;11.07;;
10277;SDS011;5184;51.376;7.148;2023-03-01T04:08:25;16.40;;;11.80;;
10277;SDS011;5184;51.376;7.148;2023-03-01T04:10:52;18.53;;;11.83;;
10277;SDS011;5184;51.376;7.148;2023-03-01T04:13:20;16.90;;;11.27;;
10277;SDS011;5184;51.376;7.148;2023-03-01T04:15:48;14.43;;;10.07;;
10277;SDS011;5184;51.376;7.148;2023-03-01T04:18:15;17.17;;;11.50;;
10277;SDS011;5184;51.376;7.148;2023-03-01T04:20:42;15.17;;;10.93;;
10277;SDS011;5184;51.376;7.148;2023-03-01T04:23:11;18.20;;;12.10;;
10277;SDS011;5184;51.376;7.148;2023-03-01T04:25:38;19.03;;;13.13;;
10277;SDS011;5184;51.376;7.148;2023-03-01T04:28:05;17.93;;;12.43;;
10277;SDS011;5184;51.376;7.148;2023-03-01T04:30:32;18.83;;;13.27;;
10277;SDS011;5184;51.376;7.148;2023-03-01T04:33:03;20.50;;;12.90;;
10277;SDS011;5184;51.376;7.148;2023-03-01T04:35:29;21.40;;;13.67;;
10277;SDS011;5184;51.376;7.148;2023-03-01T04:37:56;23.70;;;13.07;;
10277;SDS011;5184;51.376;7.148;2023-03-01T04:40:22;17.23;;;12.83;;
10277;SDS011;5184;51.376;7.148;2023-03-01T04:42:49;21.80;;;13.87;;
10277;SDS011;5184;51.376;7.148;2023-03-01T04:45:15;19.67;;;13.47;;
10277;SDS011;5184;51.376;7.148;2023-03-01T04:47:43;19.70;;;13.90;;
10277;SDS011;5184;51.376;7.148;2023-03-01T04:50:09;19.70;;;14.60;;
10277;SDS011;5184;51.376;7.148;2023-03-01T04:52:36;20.43;;;14.27;;
10277;SDS011;5184;51.376;7.148;2023-03-01T04:55:03;18.57;;;13.13;;
10277;SDS011;5184;51.376;7.148;2023-03-01T04:57:30;18.80;;;13.77;;
10277;SDS011;5184;51.376;7.148;2023-03-01T04:59:57;22.30;;;13.90;;
10277;SDS011;5184;51.376;7.148;2023-03-01T05:02:23;21.27;;;13.70;;
10277;SDS011;5184;51.376;7.148;2023-03-01T05:04:50;20.97;;;13.33;;
10277;SDS011;5184;51.376;7.148;2023-03-01T05:07:17;21.20;;;13.03;;
10277;SDS011;5184;51.376;7.148;2023-03-01T05:09:45;26.97;;;15.77;;
10277;SDS011;5184;51.376;7.148;2023-03-01T05:12:13;23.03;;;14.97;;
10277;SDS011;5184;51.376;7.148;2023-03-01T05:14:39;19.50;;;14.20;;
10277;SDS011;5184;51.376;7.148;2023-03-01T05:17:06;21.93;;;14.70;;
10277;SDS011;5184;51.376;7.148;2023-03-01T05:19:32;19.53;;;14.10;;
10277;SDS011;5184;51.376;7.148;2023-03-01T05:21:59;21.97;;;14.10;;
10277;SDS011;5184;51.376;7.148;2023-03-01T05:24:28;19.00;;;12.63;;
10277;SDS011;5184;51.376;7.148;2023-03-01T05:26:54;20.57;;;13.17;;
10277;SDS011;5184;51.376;7.148;2023-03-01T05:29:21;18.67;;;13.73;;
10277;SDS011;5184;51.376;7.148;2023-03-01T05:31:47;18.27;;;13.60;;
10277;SDS011;5184;51.376;7.148;2023-03-01T05:34:14;18.50;;;13.53;;
10277;SDS011;5184;51.376;7.148;2023-03-01T05:36:42;19.87;;;14.40;;
10277;SDS011;5184;51.376;7.148;2023-03-01T05:39:09;19.53;;;13.33;;
10277;SDS011;5184;51.376;7.148;2023-03-01T05:41:37;21.03;;;14.43;;
10277;SDS011;5184;51.376;7.148;2023-03-01T05:44:05;17.33;;;12.90;;
10277;SDS011;5184;51.376;7.148;2023-03-01T05:46:32;19.83;;;14.07;;
10277;SDS011;5184;51.376;7.148;2023-03-01T05:48:59;18.33;;;12.47;;
10277;SDS011;5184;51.376;7.148;2023-03-01T05:51:27;22.60;;;13.80;;
10277;SDS011;5184;51.376;7.148;2023-03-01T05:53:53;19.27;;;13.50;;
10277;SDS011;5184;51.376;7.148;2023-03-01T05:56:21;21.70;;;13.10;;
10277;SDS011;5184;51.376;7.148;2023-03-01T05:58:48;19.07;;;13.00;;
10277;SDS011;5184;51.376;7.148;2023-03-01T06:01:15;18.40;;;13.80;;
10277;SDS011;5184;51.376;7.148;2023-03-01T06:03:42;17.60;;;12.63;;
10277;SDS011;5184;51.376;7.148;2023-03-01T06:06:10;21.87;;;12.97;;
10277;SDS011;5184;51.376;7.148;2023-03-01T06:08:37;18.67;;;13.80;;
10277;SDS011;5184;51.376;7.148;2023-03-01T06:11:03;20.07;;;12.97;;
10277;SDS011;5184;51.376;7.148;2023-03-01T06:13:31;22.50;;;14.77;;
10277;SDS011;5184;51.376;7.148;2023-03-01T06:15:59;19.23;;;14.52;;
10277;SDS011;5184;51.376;7.148;2023-03-01T06:18:25;20.03;;;14.50;;
10277;SDS011;5184;51.376;7.148;2023-03-01T06:20:53;21.03;;;14.23;;
10277;SDS011;5184;51.376;7.148;2023-03-01T06:23:19;19.10;;;13.23;;
10277;SDS011;5184;51.376;7.148;2023-03-01T06:25:46;22.33;;;14.83;;
10277;SDS011;5184;51.376;7.148;2023-03-01T06:28:13;18.10;;;13.87;;
10277;SDS011;5184;51.376;7.148;2023-03-01T06:30:40;18.40;;;13.03;;
10277;SDS011;5184;51.376;7.148;2023-03-01T06:33:07;22.93;;;13.70;;
10277;SDS011;5184;51.376;7.148;2023-03-01T06:35:33;20.57;;;14.20;;
10277;SDS011;5184;51.376;7.148;2023-03-01T06:38:01;19.93;;;13.47;;
10277;SDS011;5184;51.376;7.148;2023-03-01T06:40:27;17.57;;;12.87;;
10277;SDS011;5184;51.376;7.148;2023-03-01T06:42:53;19.73;;;13.00;;
10277;SDS011;5184;51.376;7.148;2023-03-01T06:45:20;20.33;;;13.90;;
10277;SDS011;5184;51.376;7.148;2023-03-01T06:47:47;19.03;;;13.40;;
10277;SDS011;5184;51.376;7.148;2023-03-01T06:50:14;20.23;;;14.00;;
10277;SDS011;5184;51.376;7.148;2023-03-01T06:52:41;18.30;;;13.00;;
10277;SDS011;5184;51.376;7.148;2023-03-01T06:55:07;20.53;;;13.80;;
10277;SDS011;5184;51.376;7.148;2023-03-01T06:57:34;19.00;;;13.70;;
10277;SDS011;5184;51.376;7.148;2023-03-01T07:00:01;18.97;;;13.83;;
10277;SDS011;5184;51.376;7.148;2023-03-01T07:02:27;18.47;;;13.53;;
10277;SDS011;5184;51.376;7.148;2023-03-01T07:04:54;19.67;;;13.60;;
10277;SDS011;5184;51.376;7.148;2023-03-01T07:07:21;21.13;;;13.87;;
10277;SDS011;5184;51.376;7.148;2023-03-01T07:09:48;18.90;;;13.17;;
10277;SDS011;5184;51.376;7.148;2023-03-01T07:12:16;20.93;;;13.10;;
10277;SDS011;5184;51.376;7.148;2023-03-01T07:14:43;20.00;;;13.87;;
10277;SDS011;5184;51.376;7.148;2023-03-01T07:17:10;20.40;;;13.33;;
10277;SDS011;5184;51.376;7.148;2023-03-01T07:19:38;19.03;;;12.73;;
10277;SDS011;5184;51.376;7.148;2023-03-01T07:22:04;20.17;;;13.23;;
10277;SDS011;5184;51.376;7.148;2023-03-01T07:24:31;19.17;;;13.27;;
10277;SDS011;5184;51.376;7.148;2023-03-01T07:26:57;18.90;;;12.00;;
10277;SDS011;5184;51.376;7.148;2023-03-01T07:29:24;19.00;;;13.37;;
10277;SDS011;5184;51.376;7.148;2023-03-01T07:31:50;18.87;;;12.97;;
10277;SDS011;5184;51.376;7.148;2023-03-01T07:34:18;17.87;;;12.60;;
10277;SDS011;5184;51.376;7.148;2023-03-01T07:36:45;17.00;;;12.40;;
10277;SDS011;5184;51.376;7.148;2023-03-01T07:39:12;18.37;;;13.00;;
10277;SDS011;5184;51.376;7.148;2023-03-01T07:41:39;21.50;;;13.77;;
10277;SDS011;5184;51.376;7.148;2023-03-01T07:44:05;18.67;;;13.23;;
10277;SDS011;5184;51.376;7.148;2023-03-01T07:46:33;19.83;;;13.50;;
10277;SDS011;5184;51.376;7.148;2023-03-01T07:49:01;18.03;;;12.87;;
10277;SDS011;5184;51.376;7.148;2023-03-01T07:51:27;19.93;;;13.80;;
10277;SDS011;5184;51.376;7.148;2023-03-01T07:53:54;19.50;;;13.40;;
10277;SDS011;5184;51.376;7.148;2023-03-01T07:56:20;20.60;;;13.57;;
10277;SDS011;5184;51.376;7.148;2023-03-01T07:58:48;20.33;;;13.43;;
10277;SDS011;5184;51.376;7.148;2023-03-01T08:01:16;17.83;;;12.47;;
10277;SDS011;5184;51.376;7.148;2023-03-01T08:03:42;22.67;;;13.00;;
10277;SDS011;5184;51.376;7.148;2023-03-01T08:06:09;16.30;;;12.80;;
10277;SDS011;5184;51.376;7.148;2023-03-01T08:08:35;18.20;;;13.53;;
10277;SDS011;5184;51.376;7.148;2023-03-01T08:11:03;19.47;;;12.80;;
10277;SDS011;5184;51.376;7.148;2023-03-01T08:13:29;17.53;;;12.93;;
10277;SDS011;5184;51.376;7.148;2023-03-01T08:16:01;19.77;;;13.80;;
10277;SDS011;5184;51.376;7.148;2023-03-01T08:18:27;20.30;;;14.27;;
10277;SDS011;5184;51.376;7.148;2023-03-01T08:20:54;18.17;;;13.53;;
10277;SDS011;5184;51.376;7.148;2023-03-01T08:23:21;21.63;;;14.20;;
10277;SDS011;5184;51.376;7.148;2023-03-01T08:25:47;19.47;;;14.17;;
10277;SDS011;5184;51.376;7.148;2023-03-01T08:28:14;19.33;;;13.50;;
10277;SDS011;5184;51.376;7.148;2023-03-01T08:30:40;19.33;;;12.83;;
10277;SDS011;5184;51.376;7.148;2023-03-01T08:33:07;18.33;;;12.67;;
10277;SDS011;5184;51.376;7.148;2023-03-01T08:35:34;18.13;;;13.10;;
10277;SDS011;5184;51.376;7.148;2023-03-01T08:38:01;20.20;;;13.23;;
10277;SDS011;5184;51.376;7.148;2023-03-01T08:40:28;18.13;;;13.77;;
10277;SDS011;5184;51.376;7.148;2023-03-01T08:42:54;22.60;;;14.33;;
10277;SDS011;5184;51.376;7.148;2023-03-01T08:45:21;21.90;;;15.03;;
10277;SDS011;5184;51.376;7.148;2023-03-01T08:47:50;18.30;;;13.50;;
10277;SDS011;5184;51.376;7.148;2023-03-01T08:50:14;19.40;;;13.50;;
10277;SDS011;5184;51.376;7.148;2023-03-01T08:52:42;19.00;;;13.83;;
10277;SDS011;5184;51.376;7.148;2023-03-01T08:55:09;19.27;;;14.03;;
10277;SDS011;5184;51.376;7.148;2023-03-01T08:57:36;19.30;;;13.37;;
10277;SDS011;5184;51.376;7.148;2023-03-01T09:00:03;20.30;;;12.67;;
10277;SDS011;5184;51.376;7.148;2023-03-01T09:02:30;19.13;;;13.63;;
10277;SDS011;5184;51.376;7.148;2023-03-01T09:04:56;22.73;;;14.97;;
10277;SDS011;5184;51.376;7.148;2023-03-01T09:07:24;19.77;;;13.57;;
10277;SDS011;5184;51.376;7.148;2023-03-01T09:09:51;18.57;;;13.07;;
10277;SDS011;5184;51.376;7.148;2023-03-01T09:12:18;19.00;;;13.43;;
10277;SDS011;5184;51.376;7.148;2023-03-01T09:14:45;17.63;;;11.97;;
10277;SDS011;5184;51.376;7.148;2023-03-01T09:17:12;18.97;;;12.93;;
10277;SDS011;5184;51.376;7.148;2023-03-01T09:19:38;18.33;;;12.20;;
10277;SDS011;5184;51.376;7.148;2023-03-01T09:22:06;15.97;;;11.83;;
10277;SDS011;5184;51.376;7.148;2023-03-01T09:24:33;16.00;;;10.90;;
10277;SDS011;5184;51.376;7.148;2023-03-01T09:27:01;15.70;;;10.57;;
10277;SDS011;5184;51.376;7.148;2023-03-01T09:29:28;18.83;;;10.67;;
10277;SDS011;5184;51.376;7.148;2023-03-01T09:31:54;15.40;;;9.90;;
10277;SDS011;5184;51.376;7.148;2023-03-01T09:34:22;13.37;;;9.57;;
10277;SDS011;5184;51.376;7.148;2023-03-01T09:36:49;13.03;;;9.80;;
10277;SDS011;5184;51.376;7.148;2023-03-01T09:39:15;14.60;;;10.77;;
10277;SDS011;5184;51.376;7.148;2023-03-01T09:41:44;12.80;;;9.67;;
10277;SDS011;5184;51.376;7.148;2023-03-01T09:44:18;14.03;;;9.53;;
10277;SDS011;5184;51.376;7.148;2023-03-01T09:46:47;11.03;;;8.63;;
10277;SDS011;5184;51.376;7.148;2023-03-01T09:49:15;12.43;;;8.43;;
10277;SDS011;5184;51.376;7.148;2023-03-01T09:51:42;12.83;;;8.90;;
10277;SDS011;5184;51.376;7.148;2023-03-01T09:54:09;12.33;;;8.30;;
10277;SDS011;5184;51.376;7.148;2023-03-01T09:56:37;10.67;;;8.10;;
10277;SDS011;5184;51.376;7.148;2023-03-01T09:59:39;10.13;;;7.70;;
10277;SDS011;5184;51.376;7.148;2023-03-01T10:01:56;9.90;;;8.00;;
10277;SDS011;5184;51.376;7.148;2023-03-01T10:04:24;12.83;;;7.97;;
10277;SDS011;5184;51.376;7.148;2023-03-01T10:06:55;10.07;;;7.57;;
10277;SDS011;5184;51.376;7.148;2023-03-01T10:09:33;11.00;;;7.30;;
10277;SDS011;5184;51.376;7.148;2023-03-01T10:11:59;11.10;;;7.10;;
10277;SDS011;5184;51.376;7.148;2023-03-01T10:14:30;9.43;;;7.13;;
10277;SDS011;5184;51.376;7.148;2023-03-01T10:17:01;10.13;;;7.17;;
10277;SDS011;5184;51.376;7.148;2023-03-01T10:19:32;9.17;;;6.23;;
10277;SDS011;5184;51.376;7.148;2023-03-01T10:22:33;8.77;;;7.13;;
10277;SDS011;5184;51.376;7.148;2023-03-01T10:24:44;8.70;;;6.60;;
10277;SDS011;5184;51.376;7.148;2023-03-01T10:27:17;9.93;;;7.20;;
10277;SDS011;5184;51.376;7.148;2023-03-01T10:29:49;8.00;;;5.93;;
10277;SDS011;5184;51.376;7.148;2023-03-01T10:32:28;8.00;;;6.47;;
10277;SDS011;5184;51.376;7.148;2023-03-01T10:34:55;8.90;;;6.23;;
10277;SDS011;5184;51.376;7.148;2023-03-01T10:37:23;7.97;;;6.60;;
10277;SDS011;5184;51.376;7.148;2023-03-01T10:39:58;9.23;;;6.87;;
10277;SDS011;5184;51.376;7.148;2023-03-01T10:42:30;8.97;;;6.00;;
10277;SDS011;5184;51.376;7.148;2023-03-01T10:44:56;9.47;;;6.77;;
10277;SDS011;5184;51.376;7.148;2023-03-01T10:47:25;8.37;;;6.70;;
10277;SDS011;5184;51.376;7.148;2023-03-01T10:49:52;7.60;;;6.67;;
10277;SDS011;5184;51.376;7.148;2023-03-01T10:52:19;8.73;;;6.60;;
10277;SDS011;5184;51.376;7.148;2023-03-01T10:54:53;7.90;;;6.37;;
10277;SDS011;5184;51.376;7.148;2023-03-01T10:57:27;8.87;;;6.63;;
10277;SDS011;5184;51.376;7.148;2023-03-01T11:00:00;7.93;;;6.00;;
10277;SDS011;5184;51.376;7.148;2023-03-01T11:02:29;10.23;;;6.93;;
10277;SDS011;5184;51.376;7.148;2023-03-01T11:05:03;7.20;;;6.40;;
10277;SDS011;5184;51.376;7.148;2023-03-01T11:07:28;10.33;;;6.63;;
10277;SDS011;5184;51.376;7.148;2023-03-01T11:09:55;9.97;;;6.47;;
10277;SDS011;5184;51.376;7.148;2023-03-01T11:12:23;9.67;;;6.60;;
10277;SDS011;5184;51.376;7.148;2023-03-01T11:14:52;9.40;;;6.60;;
10277;SDS011;5184;51.376;7.148;2023-03-01T11:17:20;9.70;;;7.07;;
10277;SDS011;5184;51.376;7.148;2023-03-01T11:22:25;8.13;;;6.70;;
10277;SDS011;5184;51.376;7.148;2023-03-01T11:24:53;9.47;;;6.73;;
10277;SDS011;5184;51.376;7.148;2023-03-01T11:27:20;8.30;;;6.23;;
10277;SDS011;5184;51.376;7.148;2023-03-01T11:29:54;10.87;;;7.03;;
10277;SDS011;5184;51.376;7.148;2023-03-01T11:32:18;8.30;;;6.60;;
10277;SDS011;5184;51.376;7.148;2023-03-01T11:34:52;11.40;;;7.17;;
10277;SDS011;5184;51.376;7.148;2023-03-01T11:37:21;10.90;;;7.77;;
10277;SDS011;5184;51.376;7.148;2023-03-01T11:39:51;10.17;;;7.43;;
10277;SDS011;5184;51.376;7.148;2023-03-01T11:42:18;8.83;;;6.63;;
10277;SDS011;5184;51.376;7.148;2023-03-01T11:44:46;8.33;;;7.17;;
10277;SDS011;5184;51.376;7.148;2023-03-01T11:47:20;10.30;;;7.27;;
10277;SDS011;5184;51.376;7.148;2023-03-01T11:49:57;9.93;;;7.50;;
10277;SDS011;5184;51.376;7.148;2023-03-01T11:52:27;9.03;;;6.57;;
10277;SDS011;5184;51.376;7.148;2023-03-01T11:55:12;8.63;;;7.53;;
10277;SDS011;5184;51.376;7.148;2023-03-01T11:57:51;10.07;;;7.60;;
10277;SDS011;5184;51.376;7.148;2023-03-01T12:06:28;10.80;;;7.53;;
10277;SDS011;5184;51.376;7.148;2023-03-01T12:08:49;10.90;;;7.10;;
10277;SDS011;5184;51.376;7.148;2023-03-01T12:11:23;8.73;;;7.70;;
10277;SDS011;5184;51.376;7.148;2023-03-01T12:13:56;8.93;;;6.97;;
10277;SDS011;5184;51.376;7.148;2023-03-01T12:16:29;12.07;;;9.80;;
10277;SDS011;5184;51.376;7.148;2023-03-01T12:19:06;12.00;;;8.70;;
10277;SDS011;5184;51.376;7.148;2023-03-01T12:27:10;11.57;;;8.20;;
10277;SDS011;5184;51.376;7.148;2023-03-01T12:29:35;11.87;;;9.57;;
10277;SDS011;5184;51.376;7.148;2023-03-01T12:32:13;12.83;;;10.97;;
10277;SDS011;5184;51.376;7.148;2023-03-01T12:34:47;10.83;;;8.40;;
10277;SDS011;5184;51.376;7.148;2023-03-01T12:40:12;10.57;;;9.47;;
10277;SDS011;5184;51.376;7.148;2023-03-01T12:42:58;10.03;;;8.03;;
10277;SDS011;5184;51.376;7.148;2023-03-01T12:45:31;10.70;;;7.27;;
10277;SDS011;5184;51.376;7.148;2023-03-01T12:50:38;8.43;;;6.70;;
10277;SDS011;5184;51.376;7.148;2023-03-01T12:53:02;9.27;;;7.70;;
10277;SDS011;5184;51.376;7.148;2023-03-01T12:55:33;10.43;;;7.37;;
10277;SDS011;5184;51.376;7.148;2023-03-01T12:58:04;9.37;;;7.30;;
10277;SDS011;5184;51.376;7.148;2023-03-01T13:00:48;14.53;;;9.53;;
10277;SDS011;5184;51.376;7.148;2023-03-01T13:03:19;10.77;;;8.67;;
10277;SDS011;5184;51.376;7.148;2023-03-01T13:06:04;8.63;;;6.73;;
10277;SDS011;5184;51.376;7.148;2023-03-01T13:08:35;10.17;;;7.13;;
10277;SDS011;5184;51.376;7.148;2023-03-01T13:11:00;9.90;;;7.27;;
10277;SDS011;5184;51.376;7.148;2023-03-01T13:13:27;7.97;;;6.83;;
10277;SDS011;5184;51.376;7.148;2023-03-01T13:15:54;10.13;;;7.23;;
10277;SDS011;5184;51.376;7.148;2023-03-01T13:18:28;10.77;;;7.70;;
10277;SDS011;5184;51.376;7.148;2023-03-01T13:20:56;9.93;;;7.60;;
10277;SDS011;5184;51.376;7.148;2023-03-01T13:23:25;10.63;;;7.53;;
10277;SDS011;5184;51.376;7.148;2023-03-01T13:28:42;9.03;;;7.00;;
10277;SDS011;5184;51.376;7.148;2023-03-01T13:34:39;9.73;;;7.00;;
10277;SDS011;5184;51.376;7.148;2023-03-01T13:36:53;11.50;;;7.60;;
10277;SDS011;5184;51.376;7.148;2023-03-01T13:41:54;8.50;;;6.90;;
10277;SDS011;5184;51.376;7.148;2023-03-01T13:44:31;8.80;;;6.73;;
10277;SDS011;5184;51.376;7.148;2023-03-01T13:47:14;8.67;;;6.47;;
10277;SDS011;5184;51.376;7.148;2023-03-01T13:55:05;9.17;;;6.50;;
10277;SDS011;5184;51.376;7.148;2023-03-01T13:57:37;9.07;;;6.87;;
10277;SDS011;5184;51.376;7.148;2023-03-01T14:00:05;10.05;;;6.65;;
10277;SDS011;5184;51.376;7.148;2023-03-01T14:02:33;9.00;;;6.50;;
10277;SDS011;5184;51.376;7.148;2023-03-01T14:05:00;8.53;;;6.43;;
10277;SDS011;5184;51.376;7.148;2023-03-01T14:07:26;8.33;;;6.20;;
10277;SDS011;5184;51.376;7.148;2023-03-01T14:09:54;9.00;;;6.60;;
10277;SDS011;5184;51.376;7.148;2023-03-01T14:12:25;8.33;;;7.13;;
10277;SDS011;5184;51.376;7.148;2023-03-01T14:14:52;7.70;;;6.90;;
10277;SDS011;5184;51.376;7.148;2023-03-01T14:17:41;8.00;;;6.80;;
10277;SDS011;5184;51.376;7.148;2023-03-01T14:20:12;9.40;;;7.10;;
10277;SDS011;5184;51.376;7.148;2023-03-01T14:22:40;8.47;;;6.53;;
10277;SDS011;5184;51.376;7.148;2023-03-01T14:25:16;7.80;;;6.77;;
10277;SDS011;5184;51.376;7.148;2023-03-01T14:27:39;13.20;;;7.77;;
10277;SDS011;5184;51.376;7.148;2023-03-01T14:30:11;9.00;;;7.00;;
10277;SDS011;5184;51.376;7.148;2023-03-01T14:32:40;7.50;;;6.50;;
10277;SDS011;5184;51.376;7.148;2023-03-01T14:35:19;6.90;;;6.00;;
10277;SDS011;5184;51.376;7.148;2023-03-01T14:37:53;6.63;;;5.87;;
10277;SDS011;5184;51.376;7.148;2023-03-01T14:40:34;7.63;;;5.70;;
10277;SDS011;5184;51.376;7.148;2023-03-01T14:43:02;9.17;;;5.77;;
10277;SDS011;5184;51.376;7.148;2023-03-01T14:45:29;9.10;;;5.90;;
10277;SDS011;5184;51.376;7.148;2023-03-01T14:47:54;7.93;;;5.73;;
10277;SDS011;5184;51.376;7.148;2023-03-01T14:50:25;7.27;;;5.93;;
10277;SDS011;5184;51.376;7.148;2023-03-01T14:52:50;8.43;;;5.73;;
10277;SDS011;5184;51.376;7.148;2023-03-01T14:55:19;8.23;;;5.67;;
10277;SDS011;5184;51.376;7.148;2023-03-01T14:57:48;6.17;;;5.33;;
10277;SDS011;5184;51.376;7.148;2023-03-01T15:00:17;8.10;;;5.70;;
10277;SDS011;5184;51.376;7.148;2023-03-01T15:02:44;6.37;;;5.47;;
10277;SDS011;5184;51.376;7.148;2023-03-01T15:05:13;7.03;;;5.60;;
10277;SDS011;5184;51.376;7.148;2023-03-01T15:07:38;6.70;;;5.17;;
10277;SDS011;5184;51.376;7.148;2023-03-01T15:10:05;7.73;;;5.43;;
10277;SDS011;5184;51.376;7.148;2023-03-01T15:12:35;7.77;;;5.37;;
10277;SDS011;5184;51.376;7.148;2023-03-01T15:15:01;7.23;;;5.13;;
10277;SDS011;5184;51.376;7.148;2023-03-01T15:17:30;9.37;;;5.90;;
10277;SDS011;5184;51.376;7.148;2023-03-01T15:19:56;7.47;;;5.53;;
10277;SDS011;5184;51.376;7.148;2023-03-01T15:22:24;7.73;;;5.03;;
10277;SDS011;5184;51.376;7.148;2023-03-01T15:24:50;6.77;;;5.50;;